Cruzeiro Do Canal — CSVG — position and weather

sailwx.info

Track history (hours):
 
Tides and Currents Weather Stations Pressure Air Temp Water Temp Dewpoint Dewpoint Depression Visibility Wind Speed Wind Dir Waves Ship Positions

Cruzeiro Do Canal

Last reported at 2016-Sep-17 22:19 UTC. Time now 2016-Sep-28 15:23 UTC.
Position N 38°32' W 028°37'.
Warning: this ship's position is 10 days out of date.

Length 32 m; draft 2.3 m.

Type: Passenger vessel. MMSI: 204701250.

Date/timePositionNaut miles runAvg speedWind from/ knotsBaromVisibWave heightAir tempDewpointWater temp
2016-Sep-17 22:19N 38°32' W 028°37'7 9.8
2016-Sep-17 21:33N 38°36' W 028°29'1313.4
2016-Sep-17 20:33N 38°40' W 028°13'10 8.0
2016-Sep-17 19:16N 38°36' W 028°24'11 1.8
2016-Sep-17 13:33N 38°32' W 028°37'0 0.0
2016-Sep-17 12:34N 38°32' W 028°37'14 7.2
2016-Sep-17 10:33N 38°38' W 028°20'6 5.9
2016-Sep-17 09:33N 38°40' W 028°13'1212.4
2016-Sep-17 08:33N 38°35' W 028°28'8 8.3
2016-Sep-17 07:34N 38°32' W 028°37'  
2016-Sep-13 22:33N 38°32' W 028°37'2110.6
2016-Sep-13 20:33N 38°40' W 028°12'17 8.7
2016-Sep-13 18:34N 38°32' W 028°32'4 4.3
2016-Sep-13 17:34N 38°32' W 028°37'0 0.0
2016-Sep-13 16:33N 38°32' W 028°37'4 0.8
2016-Sep-13 11:34N 38°33' W 028°32'17 8.6
2016-Sep-13 09:34N 38°40' W 028°12'2110.5
2016-Sep-13 07:34N 38°32' W 028°37'  
2016-Sep-10 22:21N 38°32' W 028°37'910.9
2016-Sep-10 21:33N 38°36' W 028°27'1212.1
2016-Sep-10 20:34N 38°40' W 028°13'7 6.9
2016-Sep-10 19:33N 38°37' W 028°20'1010.3
2016-Sep-10 18:33N 38°32' W 028°32'4 4.2
2016-Sep-10 17:33N 38°32' W 028°37'0 0.0
2016-Sep-10 16:34N 38°32' W 028°37'0 0.0
2016-Sep-10 15:33N 38°32' W 028°37'0 0.0
2016-Sep-10 14:33N 38°32' W 028°37'0 0.0
2016-Sep-10 13:33N 38°32' W 028°37'0 0.0
2016-Sep-10 12:33N 38°32' W 028°37'4 4.2
2016-Sep-10 11:33N 38°32' W 028°32'1010.4
2016-Sep-10 10:33N 38°38' W 028°20'7 6.9
2016-Sep-10 09:33N 38°40' W 028°12'1212.2
2016-Sep-10 08:33N 38°36' W 028°27'9 8.9
2016-Sep-10 07:33N 38°32' W 028°37'  
Track history (hours):
 
Tides and Currents Weather Stations Pressure Air Temp Water Temp Dewpoint Dewpoint Depression Visibility Wind Speed Wind Dir Waves Ship Positions

Cruzeiro Do Canal

Last reported at 2016-Sep-17 22:19 UTC. Time now 2016-Sep-28 15:23 UTC.
Position N 38°32' W 028°37'.
Warning: this ship's position is 10 days out of date.

Length 32 m; draft 2.3 m.

Type: Passenger vessel. MMSI: 204701250.

Date/timePositionNaut miles runAvg speedWind from/ knotsBaromVisibWave heightAir tempDewpointWater temp
2016-Sep-17 22:19N 38°32' W 028°37'7 9.8
2016-Sep-17 21:33N 38°36' W 028°29'1313.4
2016-Sep-17 20:33N 38°40' W 028°13'10 8.0
2016-Sep-17 19:16N 38°36' W 028°24'11 1.8
2016-Sep-17 13:33N 38°32' W 028°37'0 0.0
2016-Sep-17 12:34N 38°32' W 028°37'14 7.2
2016-Sep-17 10:33N 38°38' W 028°20'6 5.9
2016-Sep-17 09:33N 38°40' W 028°13'1212.4
2016-Sep-17 08:33N 38°35' W 028°28'8 8.3
2016-Sep-17 07:34N 38°32' W 028°37'  
2016-Sep-13 22:33N 38°32' W 028°37'2110.6
2016-Sep-13 20:33N 38°40' W 028°12'17 8.7
2016-Sep-13 18:34N 38°32' W 028°32'4 4.3
2016-Sep-13 17:34N 38°32' W 028°37'0 0.0
2016-Sep-13 16:33N 38°32' W 028°37'4 0.8
2016-Sep-13 11:34N 38°33' W 028°32'17 8.6
2016-Sep-13 09:34N 38°40' W 028°12'2110.5
2016-Sep-13 07:34N 38°32' W 028°37'  
2016-Sep-10 22:21N 38°32' W 028°37'910.9
2016-Sep-10 21:33N 38°36' W 028°27'1212.1
2016-Sep-10 20:34N 38°40' W 028°13'7 6.9
2016-Sep-10 19:33N 38°37' W 028°20'1010.3
2016-Sep-10 18:33N 38°32' W 028°32'4 4.2
2016-Sep-10 17:33N 38°32' W 028°37'0 0.0
2016-Sep-10 16:34N 38°32' W 028°37'0 0.0
2016-Sep-10 15:33N 38°32' W 028°37'0 0.0
2016-Sep-10 14:33N 38°32' W 028°37'0 0.0
2016-Sep-10 13:33N 38°32' W 028°37'0 0.0
2016-Sep-10 12:33N 38°32' W 028°37'4 4.2
2016-Sep-10 11:33N 38°32' W 028°32'1010.4
2016-Sep-10 10:33N 38°38' W 028°20'7 6.9
2016-Sep-10 09:33N 38°40' W 028°12'1212.2
2016-Sep-10 08:33N 38°36' W 028°27'9 8.9
2016-Sep-10 07:33N 38°32' W 028°37'  

Dump ship's entire track history